Time;durP1;ratioP1;P1;durP2;ratioP2;P2;SDS_P1;SDS_P2;PMS_P1;PMS_P2;Temp;Humidity;BMP_temperature;BMP_pressure;BME280_temperature;BME280_humidity;BME280_pressure;Samples;Min_cycle;Max_cycle;Signal;HPM_P1;HPM_P2
2023/11/23 00:00:58;;;;;;;15.63;10.03;;;;;;;;;;2605287;54;20529;-75
2023/11/23 00:03:25;;;;;;;16.17;9.30;;;;;;;;;;2606755;54;20515;-75
2023/11/23 00:05:51;;;;;;;12.87;9.43;;;;;;;;;;2606029;54;20404;-75
2023/11/23 00:08:19;;;;;;;11.07;8.17;;;;;;;;;;2606824;54;20511;-74
2023/11/23 00:10:45;;;;;;;18.00;11.23;;;;;;;;;;2606957;54;20419;-76
2023/11/23 00:13:11;;;;;;;19.10;11.90;;;;;;;;;;2607067;54;21006;-74
2023/11/23 00:15:37;;;;;;;17.43;12.87;;;;;;;;;;2608163;54;20417;-74
2023/11/23 00:18:03;;;;;;;18.57;12.47;;;;;;;;;;2608452;54;20574;-72
2023/11/23 00:20:30;;;;;;;20.80;10.83;;;;;;;;;;2608415;39;20848;-75
2023/11/23 00:22:58;;;;;;;18.30;11.47;;;;;;;;;;2606659;54;20483;-73
2023/11/23 00:25:24;;;;;;;19.23;12.37;;;;;;;;;;2606304;54;21819;-73
2023/11/23 00:27:52;;;;;;;17.50;11.40;;;;;;;;;;2608234;54;20439;-74
2023/11/23 00:30:18;;;;;;;16.97;9.30;;;;;;;;;;2608907;54;20436;-74
2023/11/23 00:32:44;;;;;;;16.37;11.33;;;;;;;;;;2610894;54;20429;-74
2023/11/23 00:35:11;;;;;;;20.00;12.60;;;;;;;;;;2610428;54;21113;-73
2023/11/23 00:37:36;;;;;;;17.90;11.60;;;;;;;;;;2609255;54;20397;-73
2023/11/23 00:40:03;;;;;;;19.43;11.93;;;;;;;;;;2609355;39;20802;-75
2023/11/23 00:42:29;;;;;;;13.50;9.97;;;;;;;;;;2608628;54;20400;-74
2023/11/23 00:44:56;;;;;;;19.70;11.20;;;;;;;;;;2607951;54;20432;-74
2023/11/23 00:47:22;;;;;;;16.50;9.97;;;;;;;;;;2608715;54;20425;-75
2023/11/23 00:49:49;;;;;;;19.50;11.83;;;;;;;;;;2608487;54;20946;-75
2023/11/23 00:52:16;;;;;;;17.37;11.10;;;;;;;;;;2609273;54;20419;-74
2023/11/23 00:54:42;;;;;;;16.03;8.73;;;;;;;;;;2612048;54;20410;-73
2023/11/23 00:57:08;;;;;;;11.77;8.47;;;;;;;;;;2613021;39;20982;-74
2023/11/23 00:59:34;;;;;;;23.27;12.43;;;;;;;;;;2613550;54;20407;-73
2023/11/23 01:02:01;;;;;;;19.60;11.10;;;;;;;;;;2611847;54;20982;-73
2023/11/23 01:04:28;;;;;;;13.40;7.73;;;;;;;;;;2611912;54;21069;-73
2023/11/23 01:06:55;;;;;;;23.63;12.87;;;;;;;;;;2610963;54;20406;-73
2023/11/23 01:09:21;;;;;;;23.70;11.87;;;;;;;;;;2610849;39;20891;-74
2023/11/23 01:11:47;;;;;;;14.73;10.53;;;;;;;;;;2611299;54;20439;-74
2023/11/23 01:14:15;;;;;;;18.10;12.30;;;;;;;;;;2611772;54;20488;-75
2023/11/23 01:16:41;;;;;;;21.70;11.73;;;;;;;;;;2611800;54;20415;-74
2023/11/23 01:19:09;;;;;;;20.30;10.43;;;;;;;;;;2612435;54;20424;-74
2023/11/23 01:21:36;;;;;;;17.33;10.83;;;;;;;;;;2612327;54;21575;-74
2023/11/23 01:24:02;;;;;;;16.70;11.00;;;;;;;;;;2612289;54;20855;-73
2023/11/23 01:26:29;;;;;;;19.17;11.13;;;;;;;;;;2612229;54;20598;-74
2023/11/23 01:28:55;;;;;;;18.77;13.67;;;;;;;;;;2612755;54;20542;-74
2023/11/23 01:31:21;;;;;;;12.40;7.00;;;;;;;;;;2613197;54;21005;-74
2023/11/23 01:33:47;;;;;;;20.17;11.73;;;;;;;;;;2613010;54;20491;-74
2023/11/23 01:36:13;;;;;;;21.73;13.50;;;;;;;;;;2612640;54;20442;-74
2023/11/23 01:38:39;;;;;;;22.70;13.07;;;;;;;;;;2612844;39;20781;-74
2023/11/23 01:41:05;;;;;;;18.73;12.00;;;;;;;;;;2612243;54;20763;-74
2023/11/23 01:43:31;;;;;;;18.30;11.73;;;;;;;;;;2612883;47;20550;-74
2023/11/23 01:45:57;;;;;;;24.93;14.43;;;;;;;;;;2612971;39;20479;-73
2023/11/23 01:48:24;;;;;;;23.50;12.10;;;;;;;;;;2612083;54;20429;-73
2023/11/23 01:50:50;;;;;;;17.33;11.70;;;;;;;;;;2612949;54;20414;-73
2023/11/23 01:53:17;;;;;;;27.73;14.17;;;;;;;;;;2612353;54;20444;-74
2023/11/23 01:55:43;;;;;;;19.97;12.40;;;;;;;;;;2612594;47;20423;-75
2023/11/23 01:58:11;;;;;;;27.53;14.07;;;;;;;;;;2612900;54;20439;-74
2023/11/23 02:00:37;;;;;;;28.00;16.13;;;;;;;;;;2613244;54;20420;-74
2023/11/23 02:03:03;;;;;;;22.43;13.17;;;;;;;;;;2610914;47;20422;-74
2023/11/23 02:05:29;;;;;;;15.57;10.27;;;;;;;;;;2610183;54;20432;-75
2023/11/23 02:07:55;;;;;;;22.60;11.57;;;;;;;;;;2607926;54;20555;-74
2023/11/23 02:10:21;;;;;;;10.70;6.80;;;;;;;;;;2607489;54;20423;-74
2023/11/23 02:12:49;;;;;;;22.30;14.03;;;;;;;;;;2608270;54;20415;-74
2023/11/23 02:15:15;;;;;;;25.40;12.80;;;;;;;;;;2608328;54;20402;-74
2023/11/23 02:17:41;;;;;;;8.93;6.50;;;;;;;;;;2608069;54;20412;-75
2023/11/23 02:20:08;;;;;;;25.37;14.50;;;;;;;;;;2608699;54;20405;-75
2023/11/23 02:22:35;;;;;;;16.10;10.17;;;;;;;;;;2607877;39;22283;-75
2023/11/23 02:25:02;;;;;;;22.73;13.60;;;;;;;;;;2607526;54;20490;-75
2023/11/23 02:27:28;;;;;;;19.83;13.93;;;;;;;;;;2607028;39;20846;-75
2023/11/23 02:29:54;;;;;;;24.33;14.20;;;;;;;;;;2606514;54;20437;-75
2023/11/23 02:32:20;;;;;;;25.87;14.70;;;;;;;;;;2607794;54;20432;-74
2023/11/23 02:34:46;;;;;;;25.90;14.90;;;;;;;;;;2608029;54;20392;-75
2023/11/23 02:37:12;;;;;;;16.00;10.90;;;;;;;;;;2608314;54;20938;-74
2023/11/23 02:39:43;;;;;;;27.10;15.77;;;;;;;;;;2607420;54;20511;-74
2023/11/23 02:42:09;;;;;;;29.60;16.27;;;;;;;;;;2608279;39;20671;-74
2023/11/23 02:44:35;;;;;;;28.20;17.97;;;;;;;;;;2606866;39;20712;-75
2023/11/23 02:47:01;;;;;;;26.50;15.97;;;;;;;;;;2607108;47;20428;-75
2023/11/23 02:49:28;;;;;;;29.80;15.83;;;;;;;;;;2607717;54;20388;-75
2023/11/23 02:51:57;;;;;;;26.13;16.30;;;;;;;;;;2607878;54;20405;-75
2023/11/23 02:54:23;;;;;;;22.87;11.63;;;;;;;;;;2607112;54;20419;-74
2023/11/23 02:56:49;;;;;;;27.93;16.97;;;;;;;;;;2609949;54;20417;-75
2023/11/23 02:59:16;;;;;;;25.17;13.63;;;;;;;;;;2607037;54;20421;-74
2023/11/23 03:01:42;;;;;;;25.60;15.50;;;;;;;;;;2607208;54;20982;-74
2023/11/23 03:04:09;;;;;;;32.17;18.17;;;;;;;;;;2606081;54;20409;-75
2023/11/23 03:06:35;;;;;;;30.63;17.10;;;;;;;;;;2607639;54;20409;-75
2023/11/23 03:09:01;;;;;;;29.30;17.77;;;;;;;;;;2607217;54;20456;-74
2023/11/23 03:11:27;;;;;;;32.23;19.37;;;;;;;;;;2607290;39;20840;-74
2023/11/23 03:13:53;;;;;;;35.13;20.60;;;;;;;;;;2607746;54;20429;-75
2023/11/23 03:16:20;;;;;;;30.83;18.00;;;;;;;;;;2608697;31;20843;-75
2023/11/23 03:18:46;;;;;;;22.93;13.00;;;;;;;;;;2606440;47;20437;-75
2023/11/23 03:21:12;;;;;;;24.50;13.00;;;;;;;;;;2608174;54;20420;-74
2023/11/23 03:23:38;;;;;;;23.20;15.87;;;;;;;;;;2608070;39;20650;-74
2023/11/23 03:26:04;;;;;;;38.97;20.03;;;;;;;;;;2607151;39;21280;-74
2023/11/23 03:28:30;;;;;;;35.10;20.23;;;;;;;;;;2607816;54;20436;-75
2023/11/23 03:30:57;;;;;;;19.43;11.53;;;;;;;;;;2608362;54;20427;-74
2023/11/23 03:33:24;;;;;;;28.57;17.93;;;;;;;;;;2607238;54;20411;-75
2023/11/23 03:35:50;;;;;;;35.83;20.73;;;;;;;;;;2607067;54;20400;-75
2023/11/23 03:38:16;;;;;;;37.73;20.37;;;;;;;;;;2608070;54;20744;-75
2023/11/23 03:40:42;;;;;;;36.57;22.77;;;;;;;;;;2607343;54;20476;-75
2023/11/23 03:43:09;;;;;;;35.27;20.87;;;;;;;;;;2607747;39;20797;-74
2023/11/23 03:45:35;;;;;;;38.53;24.10;;;;;;;;;;2607798;54;20417;-74
2023/11/23 03:48:03;;;;;;;28.17;18.70;;;;;;;;;;2607241;54;20503;-75
2023/11/23 03:50:29;;;;;;;31.90;20.20;;;;;;;;;;2607604;50;20411;-76
2023/11/23 03:52:55;;;;;;;37.67;22.83;;;;;;;;;;2608205;54;20411;-75
2023/11/23 03:55:22;;;;;;;28.37;16.90;;;;;;;;;;2609300;39;20829;-74
2023/11/23 03:57:48;;;;;;;36.30;23.07;;;;;;;;;;2607089;54;20962;-74
2023/11/23 04:00:21;;;;;;;35.30;20.50;;;;;;;;;;2607846;47;20935;-75
2023/11/23 04:02:47;;;;;;;43.80;24.57;;;;;;;;;;2608332;54;20389;-75
2023/11/23 04:05:18;;;;;;;38.13;23.93;;;;;;;;;;2607079;54;20422;-75
2023/11/23 04:07:44;;;;;;;36.03;19.37;;;;;;;;;;2607760;54;20441;-74
2023/11/23 04:10:11;;;;;;;40.90;23.77;;;;;;;;;;2607305;54;20405;-74
2023/11/23 04:12:37;;;;;;;27.77;17.40;;;;;;;;;;2606814;47;20455;-75
2023/11/23 04:15:03;;;;;;;34.77;24.20;;;;;;;;;;2607111;47;20450;-75
2023/11/23 04:17:29;;;;;;;44.77;23.40;;;;;;;;;;2607742;39;20851;-75
2023/11/23 04:19:55;;;;;;;36.43;19.00;;;;;;;;;;2608186;39;20647;-75
2023/11/23 04:22:25;;;;;;;45.90;23.50;;;;;;;;;;2607658;54;20640;-75
2023/11/23 04:24:51;;;;;;;39.03;22.90;;;;;;;;;;2608290;54;20397;-75
2023/11/23 04:27:17;;;;;;;46.80;25.20;;;;;;;;;;2606083;54;21022;-74
2023/11/23 04:29:43;;;;;;;37.73;22.90;;;;;;;;;;2607117;47;20452;-74
2023/11/23 04:32:12;;;;;;;33.30;19.90;;;;;;;;;;2607542;47;20428;-74
2023/11/23 04:34:38;;;;;;;36.03;23.73;;;;;;;;;;2607503;54;20392;-74
2023/11/23 04:37:04;;;;;;;48.63;27.20;;;;;;;;;;2607999;54;20496;-74
2023/11/23 04:39:31;;;;;;;45.67;24.53;;;;;;;;;;2608125;39;20858;-75
2023/11/23 04:41:57;;;;;;;44.00;24.23;;;;;;;;;;2609786;39;20808;-75
2023/11/23 04:44:23;;;;;;;37.73;24.43;;;;;;;;;;2608952;54;20412;-75
2023/11/23 04:46:49;;;;;;;31.10;17.47;;;;;;;;;;2609266;54;20522;-75
2023/11/23 04:49:16;;;;;;;37.17;20.03;;;;;;;;;;2607484;54;20437;-74
2023/11/23 04:51:42;;;;;;;28.00;19.20;;;;;;;;;;2608112;54;21012;-75
2023/11/23 04:54:09;;;;;;;35.87;22.00;;;;;;;;;;2607373;47;20442;-74
2023/11/23 04:56:35;;;;;;;33.93;17.40;;;;;;;;;;2609204;54;21008;-75
2023/11/23 04:59:02;;;;;;;37.20;25.07;;;;;;;;;;2607116;46;20405;-75
2023/11/23 05:01:28;;;;;;;34.27;17.00;;;;;;;;;;2606552;54;20962;-75
2023/11/23 05:03:55;;;;;;;35.47;20.23;;;;;;;;;;2606737;47;20429;-73
2023/11/23 05:06:23;;;;;;;36.27;20.90;;;;;;;;;;2610872;54;20405;-74
2023/11/23 05:08:50;;;;;;;35.77;19.80;;;;;;;;;;2611855;54;20527;-74
2023/11/23 05:11:17;;;;;;;36.30;22.93;;;;;;;;;;2612062;54;20481;-73
2023/11/23 05:13:44;;;;;;;45.07;21.43;;;;;;;;;;2612799;54;20487;-73
2023/11/23 05:16:10;;;;;;;36.67;22.47;;;;;;;;;;2610979;47;20436;-73
2023/11/23 05:18:36;;;;;;;30.53;19.10;;;;;;;;;;2610244;47;20407;-73
2023/11/23 05:21:04;;;;;;;31.57;15.50;;;;;;;;;;2611082;39;20807;-73
2023/11/23 05:23:30;;;;;;;41.53;20.67;;;;;;;;;;2611190;54;20890;-74
2023/11/23 05:26:05;;;;;;;27.70;20.33;;;;;;;;;;2611834;54;20442;-74
2023/11/23 05:28:31;;;;;;;32.20;20.43;;;;;;;;;;2612332;54;20452;-74
2023/11/23 05:30:57;;;;;;;37.10;23.03;;;;;;;;;;2611908;54;20416;-74
2023/11/23 05:33:23;;;;;;;33.80;21.77;;;;;;;;;;2609234;54;20975;-75
2023/11/23 05:35:49;;;;;;;38.27;25.73;;;;;;;;;;2604524;47;20416;-75
2023/11/23 05:38:15;;;;;;;33.17;20.40;;;;;;;;;;2606892;54;20399;-76
2023/11/23 05:40:42;;;;;;;32.57;22.33;;;;;;;;;;2604903;54;20484;-75
2023/11/23 05:43:08;;;;;;;44.37;22.03;;;;;;;;;;2604899;49;20454;-75
2023/11/23 05:45:34;;;;;;;39.20;23.30;;;;;;;;;;2605035;47;20430;-77
2023/11/23 05:48:01;;;;;;;42.30;21.03;;;;;;;;;;2606190;39;20848;-75
2023/11/23 05:50:27;;;;;;;38.47;22.93;;;;;;;;;;2604597;54;20431;-75
2023/11/23 05:52:53;;;;;;;42.53;22.87;;;;;;;;;;2607769;54;20959;-75
2023/11/23 05:55:19;;;;;;;38.27;24.30;;;;;;;;;;2607538;54;20410;-75
2023/11/23 05:57:45;;;;;;;35.93;22.00;;;;;;;;;;2607730;54;20974;-74
2023/11/23 06:00:11;;;;;;;32.43;19.07;;;;;;;;;;2607411;54;21077;-75
2023/11/23 06:02:38;;;;;;;27.27;17.37;;;;;;;;;;2607860;54;20505;-79
2023/11/23 06:05:05;;;;;;;26.50;17.30;;;;;;;;;;2608442;54;20455;-75
2023/11/23 06:07:31;;;;;;;35.37;20.43;;;;;;;;;;2607039;54;20424;-75
2023/11/23 06:10:01;;;;;;;26.20;15.17;;;;;;;;;;2603829;46;20436;-75
2023/11/23 06:12:27;;;;;;;31.27;22.13;;;;;;;;;;2611162;49;20421;-75
2023/11/23 06:14:53;;;;;;;32.43;22.60;;;;;;;;;;2611769;46;20430;-74
2023/11/23 06:17:19;;;;;;;30.87;20.67;;;;;;;;;;2611867;54;20420;-74
2023/11/23 06:19:45;;;;;;;40.13;21.40;;;;;;;;;;2610928;54;20427;-75
2023/11/23 06:22:11;;;;;;;35.27;21.67;;;;;;;;;;2611497;54;20538;-74
2023/11/23 06:24:37;;;;;;;24.27;15.50;;;;;;;;;;2610113;54;20398;-74
2023/11/23 06:27:04;;;;;;;29.57;18.30;;;;;;;;;;2611109;54;20395;-74
2023/11/23 06:29:30;;;;;;;24.90;15.70;;;;;;;;;;2609151;47;20960;-74
2023/11/23 06:31:56;;;;;;;28.73;17.70;;;;;;;;;;2611295;39;20851;-73
2023/11/23 06:34:22;;;;;;;29.57;17.70;;;;;;;;;;2610840;47;20963;-74
2023/11/23 06:36:52;;;;;;;30.50;19.17;;;;;;;;;;2611439;54;20520;-74
2023/11/23 06:39:23;;;;;;;28.77;17.50;;;;;;;;;;2611084;47;21007;-74
2023/11/23 06:41:53;;;;;;;21.63;14.07;;;;;;;;;;2610805;54;20437;-73
2023/11/23 06:44:22;;;;;;;28.80;19.53;;;;;;;;;;2612001;54;20413;-74
2023/11/23 06:46:49;;;;;;;30.53;19.80;;;;;;;;;;2612798;46;20443;-75
2023/11/23 06:49:15;;;;;;;39.20;21.87;;;;;;;;;;2613748;54;20463;-75
2023/11/23 06:51:41;;;;;;;31.23;21.50;;;;;;;;;;2613443;54;20944;-75
2023/11/23 06:54:09;;;;;;;30.03;16.10;;;;;;;;;;2612957;54;20419;-74
2023/11/23 06:56:35;;;;;;;33.43;21.50;;;;;;;;;;2612212;54;20485;-74
2023/11/23 06:59:01;;;;;;;28.63;17.77;;;;;;;;;;2612568;54;20459;-74
2023/11/23 07:01:27;;;;;;;30.33;21.63;;;;;;;;;;2612417;47;20413;-74
2023/11/23 07:03:56;;;;;;;33.00;21.47;;;;;;;;;;2611456;54;20426;-74
2023/11/23 07:06:24;;;;;;;27.47;14.87;;;;;;;;;;2612379;54;20978;-74
2023/11/23 07:08:50;;;;;;;35.03;20.87;;;;;;;;;;2613489;54;20430;-75
2023/11/23 07:11:19;;;;;;;30.37;18.33;;;;;;;;;;2612236;47;20919;-74
2023/11/23 07:13:46;;;;;;;36.00;22.77;;;;;;;;;;2611811;54;20484;-75
2023/11/23 07:16:15;;;;;;;34.03;23.43;;;;;;;;;;2612019;47;20440;-73
2023/11/23 07:18:41;;;;;;;29.67;15.57;;;;;;;;;;2610923;47;20560;-75
2023/11/23 07:21:07;;;;;;;36.73;21.83;;;;;;;;;;2607263;54;20442;-74
2023/11/23 07:23:36;;;;;;;32.23;18.63;;;;;;;;;;2609810;54;20989;-75
2023/11/23 07:26:02;;;;;;;29.30;17.77;;;;;;;;;;2611314;39;20818;-74
2023/11/23 07:28:28;;;;;;;30.23;20.33;;;;;;;;;;2611689;39;20865;-74
2023/11/23 07:30:57;;;;;;;28.57;18.37;;;;;;;;;;2610640;54;20399;-74
2023/11/23 07:33:35;;;;;;;32.53;21.07;;;;;;;;;;2611462;47;20792;-78
2023/11/23 07:36:04;;;;;;;34.37;21.50;;;;;;;;;;2612732;54;20407;-75
2023/11/23 07:38:32;;;;;;;35.97;20.60;;;;;;;;;;2611184;39;20826;-74
2023/11/23 07:40:58;;;;;;;36.33;21.40;;;;;;;;;;2611745;51;20985;-74
2023/11/23 07:43:25;;;;;;;36.70;22.40;;;;;;;;;;2612143;54;20463;-75
2023/11/23 07:45:53;;;;;;;27.57;19.93;;;;;;;;;;2612663;54;20420;-75
2023/11/23 07:48:19;;;;;;;28.70;17.77;;;;;;;;;;2612452;47;20422;-75
2023/11/23 07:50:45;;;;;;;33.57;19.90;;;;;;;;;;2613892;54;20427;-75
2023/11/23 07:53:12;;;;;;;31.10;22.00;;;;;;;;;;2611051;54;21377;-75
2023/11/23 07:55:38;;;;;;;23.67;15.17;;;;;;;;;;2613091;54;20450;-77
2023/11/23 07:58:07;;;;;;;34.37;21.30;;;;;;;;;;2612929;51;20883;-77
2023/11/23 08:00:37;;;;;;;28.67;16.03;;;;;;;;;;2612854;51;20942;-77
2023/11/23 08:03:03;;;;;;;30.87;19.70;;;;;;;;;;2612897;46;21027;-76
2023/11/23 08:05:29;;;;;;;27.93;17.10;;;;;;;;;;2611779;47;20420;-76
2023/11/23 08:07:56;;;;;;;33.03;18.57;;;;;;;;;;2607395;54;20554;-76
2023/11/23 08:10:22;;;;;;;30.87;18.90;;;;;;;;;;2610766;39;20787;-75
2023/11/23 08:12:48;;;;;;;27.03;15.20;;;;;;;;;;2609273;54;20432;-75
2023/11/23 08:15:14;;;;;;;29.53;15.43;;;;;;;;;;2610640;54;20429;-75
2023/11/23 08:17:41;;;;;;;36.87;24.53;;;;;;;;;;2609860;54;20414;-75
2023/11/23 08:20:08;;;;;;;30.13;18.00;;;;;;;;;;2609249;54;21044;-75
2023/11/23 08:22:34;;;;;;;28.07;18.70;;;;;;;;;;2610664;39;20830;-74
2023/11/23 08:25:00;;;;;;;26.90;14.90;;;;;;;;;;2609672;39;21306;-77
2023/11/23 08:27:27;;;;;;;23.57;16.20;;;;;;;;;;2606786;54;20443;-76
2023/11/23 08:29:53;;;;;;;24.63;17.87;;;;;;;;;;2608540;47;20454;-75
2023/11/23 08:32:20;;;;;;;26.83;14.00;;;;;;;;;;2609815;47;20424;-75
2023/11/23 08:34:48;;;;;;;29.63;18.30;;;;;;;;;;2609772;39;20816;-76
2023/11/23 08:37:16;;;;;;;27.37;17.07;;;;;;;;;;2609861;54;20398;-74
2023/11/23 08:39:42;;;;;;;33.90;20.37;;;;;;;;;;2610518;54;20487;-75
2023/11/23 08:42:10;;;;;;;23.90;17.67;;;;;;;;;;2609894;54;20423;-75
2023/11/23 08:44:36;;;;;;;24.83;13.80;;;;;;;;;;2609351;54;20442;-75
2023/11/23 08:47:05;;;;;;;21.40;15.83;;;;;;;;;;2608741;54;20448;-75
2023/11/23 08:49:31;;;;;;;33.60;17.87;;;;;;;;;;2610125;54;20458;-75
2023/11/23 08:51:58;;;;;;;35.70;19.33;;;;;;;;;;2609561;54;20779;-75
2023/11/23 08:54:24;;;;;;;26.70;15.90;;;;;;;;;;2609531;54;20424;-75
2023/11/23 08:56:51;;;;;;;29.63;15.40;;;;;;;;;;2609070;54;20435;-75
2023/11/23 08:59:17;;;;;;;21.40;13.90;;;;;;;;;;2608878;39;20679;-77
2023/11/23 09:01:43;;;;;;;25.77;17.20;;;;;;;;;;2608789;47;20437;-75
2023/11/23 09:04:09;;;;;;;19.37;15.40;;;;;;;;;;2608608;47;20421;-75
2023/11/23 09:06:36;;;;;;;24.30;15.20;;;;;;;;;;2610186;54;20519;-73
2023/11/23 09:09:02;;;;;;;24.47;17.53;;;;;;;;;;2609752;54;20555;-74
2023/11/23 09:11:28;;;;;;;29.10;19.47;;;;;;;;;;2608774;54;21074;-75
2023/11/23 09:13:54;;;;;;;25.43;17.80;;;;;;;;;;2609178;54;20935;-74
2023/11/23 09:16:21;;;;;;;14.80;11.20;;;;;;;;;;2609399;46;20488;-75
2023/11/23 09:18:47;;;;;;;26.33;16.17;;;;;;;;;;2609958;39;20873;-73
2023/11/23 09:21:13;;;;;;;24.27;16.13;;;;;;;;;;2609621;47;20422;-75
2023/11/23 09:23:39;;;;;;;22.27;16.27;;;;;;;;;;2609350;54;20410;-75
2023/11/23 09:26:07;;;;;;;21.10;13.93;;;;;;;;;;2608720;54;20419;-74
2023/11/23 09:28:33;;;;;;;23.47;16.83;;;;;;;;;;2606110;54;20469;-75
2023/11/23 09:30:59;;;;;;;32.80;17.10;;;;;;;;;;2607357;54;20839;-74
2023/11/23 09:33:26;;;;;;;25.30;13.47;;;;;;;;;;2608403;54;20425;-73
2023/11/23 09:35:52;;;;;;;28.93;18.23;;;;;;;;;;2608211;54;20953;-73
2023/11/23 09:38:19;;;;;;;22.07;15.00;;;;;;;;;;2607418;39;20788;-74
2023/11/23 09:40:45;;;;;;;22.23;15.40;;;;;;;;;;2608664;54;20490;-75
2023/11/23 09:43:12;;;;;;;32.57;19.00;;;;;;;;;;2607480;47;20523;-74
2023/11/23 09:45:39;;;;;;;37.90;21.47;;;;;;;;;;2608380;39;20823;-75
2023/11/23 09:48:07;;;;;;;26.23;16.10;;;;;;;;;;2608598;39;20735;-75
2023/11/23 09:50:33;;;;;;;24.03;15.10;;;;;;;;;;2608096;54;20444;-75
2023/11/23 09:53:00;;;;;;;24.93;16.10;;;;;;;;;;2608594;54;21076;-75
2023/11/23 09:55:26;;;;;;;18.67;12.13;;;;;;;;;;2608235;54;20482;-74
2023/11/23 09:57:52;;;;;;;32.87;18.67;;;;;;;;;;2609350;54;20460;-75
2023/11/23 10:00:19;;;;;;;28.27;18.13;;;;;;;;;;2608771;54;20395;-74
2023/11/23 10:02:55;;;;;;;21.40;13.73;;;;;;;;;;2608519;47;20475;-75
2023/11/23 10:05:22;;;;;;;17.17;13.20;;;;;;;;;;2606156;47;20425;-73
2023/11/23 10:07:49;;;;;;;21.63;14.20;;;;;;;;;;2608176;50;20424;-75
2023/11/23 10:10:16;;;;;;;27.83;17.57;;;;;;;;;;2608626;54;21053;-76
2023/11/23 10:12:44;;;;;;;25.37;17.70;;;;;;;;;;2608559;54;20422;-74
2023/11/23 10:15:11;;;;;;;24.87;18.77;;;;;;;;;;2608160;54;20430;-76
2023/11/23 10:17:37;;;;;;;26.77;17.60;;;;;;;;;;2607980;54;20540;-76
2023/11/23 10:20:14;;;;;;;33.20;23.10;;;;;;;;;;2608196;39;20872;-76
2023/11/23 10:22:47;;;;;;;24.27;17.13;;;;;;;;;;2608696;54;20382;-76
2023/11/23 10:25:24;;;;;;;19.27;13.40;;;;;;;;;;2608217;54;20430;-75
2023/11/23 10:27:50;;;;;;;30.80;16.37;;;;;;;;;;2610108;54;20413;-75
2023/11/23 10:30:16;;;;;;;25.57;16.73;;;;;;;;;;2609789;47;20938;-76
2023/11/23 10:32:43;;;;;;;30.43;17.40;;;;;;;;;;2610456;54;20442;-75
2023/11/23 10:35:10;;;;;;;26.33;16.90;;;;;;;;;;2609681;51;20410;-76
2023/11/23 10:37:38;;;;;;;31.83;22.30;;;;;;;;;;2610202;54;20432;-75
2023/11/23 10:40:07;;;;;;;30.77;19.07;;;;;;;;;;2610277;54;20453;-75
2023/11/23 10:42:33;;;;;;;29.50;18.60;;;;;;;;;;2610211;39;20897;-75
2023/11/23 10:45:00;;;;;;;31.23;20.33;;;;;;;;;;2610186;48;21011;-75
2023/11/23 10:47:28;;;;;;;17.50;13.63;;;;;;;;;;2610877;54;21008;-76
2023/11/23 10:49:55;;;;;;;20.03;13.53;;;;;;;;;;2611557;54;20466;-76
2023/11/23 10:52:21;;;;;;;19.67;14.73;;;;;;;;;;2610830;47;20420;-74
2023/11/23 10:54:49;;;;;;;34.77;22.30;;;;;;;;;;2610444;54;20774;-75
2023/11/23 10:57:18;;;;;;;29.70;20.40;;;;;;;;;;2610926;54;20525;-75
2023/11/23 10:59:45;;;;;;;23.80;17.13;;;;;;;;;;2612047;54;20411;-75
2023/11/23 11:02:13;;;;;;;24.63;16.60;;;;;;;;;;2610866;46;20460;-76
2023/11/23 11:04:40;;;;;;;21.13;12.23;;;;;;;;;;2611261;54;20472;-75
2023/11/23 11:07:08;;;;;;;31.37;20.40;;;;;;;;;;2611124;54;20547;-74
2023/11/23 11:09:35;;;;;;;26.20;19.93;;;;;;;;;;2610139;54;20439;-75
2023/11/23 11:12:03;;;;;;;34.33;22.40;;;;;;;;;;2611066;54;20470;-75
2023/11/23 11:14:35;;;;;;;20.20;16.53;;;;;;;;;;2610690;47;20430;-75
2023/11/23 11:17:02;;;;;;;29.47;20.70;;;;;;;;;;2609141;47;20439;-75
2023/11/23 11:19:28;;;;;;;27.43;19.50;;;;;;;;;;2611235;54;20884;-75
2023/11/23 11:22:02;;;;;;;24.73;17.40;;;;;;;;;;2611022;54;20438;-76
2023/11/23 11:24:28;;;;;;;24.87;16.53;;;;;;;;;;2611526;39;20896;-75
2023/11/23 11:27:03;;;;;;;29.60;18.63;;;;;;;;;;2611226;54;20422;-74
2023/11/23 11:29:33;;;;;;;28.20;18.00;;;;;;;;;;2610917;39;20880;-75
2023/11/23 11:32:03;;;;;;;21.70;15.50;;;;;;;;;;2608909;51;20483;-76
2023/11/23 11:34:36;;;;;;;32.23;21.80;;;;;;;;;;2609874;39;20815;-75
2023/11/23 11:37:10;;;;;;;25.80;18.17;;;;;;;;;;2606931;54;20433;-74
2023/11/23 11:39:36;;;;;;;29.30;22.40;;;;;;;;;;2607516;39;20906;-74
2023/11/23 11:42:03;;;;;;;16.63;12.30;;;;;;;;;;2606419;54;20422;-75
2023/11/23 11:44:34;;;;;;;25.27;18.87;;;;;;;;;;2605408;54;20446;-74
2023/11/23 11:47:06;;;;;;;31.23;20.40;;;;;;;;;;2605833;54;20406;-75
2023/11/23 11:49:32;;;;;;;22.07;14.20;;;;;;;;;;2605784;54;20434;-75
2023/11/23 11:51:58;;;;;;;20.83;14.07;;;;;;;;;;2607166;54;20404;-76
2023/11/23 11:54:25;;;;;;;20.37;16.93;;;;;;;;;;2606560;54;20403;-73
2023/11/23 11:56:51;;;;;;;16.83;15.03;;;;;;;;;;2607103;54;20446;-74
2023/11/23 11:59:18;;;;;;;20.47;16.63;;;;;;;;;;2610002;54;20428;-74
2023/11/23 12:01:44;;;;;;;18.60;13.33;;;;;;;;;;2610359;54;21018;-75
2023/11/23 12:04:14;;;;;;;20.27;14.67;;;;;;;;;;2611679;54;20396;-74
2023/11/23 12:06:40;;;;;;;21.40;14.97;;;;;;;;;;2609767;39;20841;-72
2023/11/23 12:09:23;;;;;;;16.17;12.40;;;;;;;;;;2606155;54;21036;-74
2023/11/23 12:11:51;;;;;;;13.87;9.47;;;;;;;;;;2605692;31;21004;-74
2023/11/23 12:14:17;;;;;;;16.20;12.67;;;;;;;;;;2605665;39;20458;-76
2023/11/23 12:16:45;;;;;;;17.40;12.40;;;;;;;;;;2607550;54;20398;-81
2023/11/23 12:19:15;;;;;;;16.43;12.20;;;;;;;;;;2607879;39;20829;-75
2023/11/23 12:21:41;;;;;;;27.83;13.20;;;;;;;;;;2606221;54;20416;-80
2023/11/23 12:24:09;;;;;;;14.10;11.23;;;;;;;;;;2607602;54;20963;-80
2023/11/23 12:26:40;;;;;;;16.30;11.27;;;;;;;;;;2608118;54;20400;-79
2023/11/23 12:29:06;;;;;;;15.87;10.87;;;;;;;;;;2609826;39;20886;-78
2023/11/23 12:31:32;;;;;;;15.13;9.63;;;;;;;;;;2609018;47;20403;-83
2023/11/23 12:33:59;;;;;;;9.43;8.43;;;;;;;;;;2607684;54;20814;-75
2023/11/23 12:36:26;;;;;;;19.53;11.13;;;;;;;;;;2608730;54;20430;-75
2023/11/23 12:38:52;;;;;;;13.80;9.23;;;;;;;;;;2608482;54;20443;-74
2023/11/23 12:41:20;;;;;;;14.20;10.13;;;;;;;;;;2604604;54;20430;-75
2023/11/23 12:43:46;;;;;;;20.57;10.50;;;;;;;;;;2605622;54;20447;-75
2023/11/23 12:46:12;;;;;;;15.83;11.17;;;;;;;;;;2604804;54;20966;-75
2023/11/23 12:48:38;;;;;;;13.40;9.10;;;;;;;;;;2606209;54;20386;-74
2023/11/23 12:51:04;;;;;;;12.80;10.80;;;;;;;;;;2603967;54;20975;-75
2023/11/23 12:53:30;;;;;;;16.90;9.70;;;;;;;;;;2606006;54;21451;-74
2023/11/23 12:55:56;;;;;;;17.60;10.00;;;;;;;;;;2605049;54;20433;-74
2023/11/23 12:58:22;;;;;;;14.17;10.77;;;;;;;;;;2604318;47;20420;-74
2023/11/23 13:00:48;;;;;;;14.50;10.53;;;;;;;;;;2604435;54;20434;-75
2023/11/23 13:03:14;;;;;;;14.03;9.83;;;;;;;;;;2604020;54;20423;-75
2023/11/23 13:05:41;;;;;;;13.20;11.60;;;;;;;;;;2605070;47;20443;-74
2023/11/23 13:08:08;;;;;;;9.00;8.10;;;;;;;;;;2604917;54;20416;-77
2023/11/23 13:10:33;;;;;;;13.73;10.57;;;;;;;;;;2600516;54;20424;-75
2023/11/23 13:13:00;;;;;;;15.00;10.20;;;;;;;;;;2601539;54;20534;-75
2023/11/23 13:15:27;;;;;;;8.53;7.63;;;;;;;;;;2603693;47;20843;-73
2023/11/23 13:17:53;;;;;;;13.57;9.13;;;;;;;;;;2604823;54;21462;-73
2023/11/23 13:20:20;;;;;;;10.13;8.10;;;;;;;;;;2605654;54;20400;-74
2023/11/23 13:22:47;;;;;;;12.57;8.30;;;;;;;;;;2605363;47;20949;-74
2023/11/23 13:25:14;;;;;;;9.50;8.33;;;;;;;;;;2605181;54;20447;-76
2023/11/23 13:27:42;;;;;;;10.07;6.97;;;;;;;;;;2607636;54;20514;-73
2023/11/23 13:30:11;;;;;;;10.23;8.20;;;;;;;;;;2609708;39;20878;-72
2023/11/23 13:32:38;;;;;;;6.33;5.43;;;;;;;;;;2606241;39;21110;-75
2023/11/23 13:35:06;;;;;;;8.83;7.90;;;;;;;;;;2607054;54;20412;-74
2023/11/23 13:37:34;;;;;;;8.50;5.67;;;;;;;;;;2608924;54;20407;-74
2023/11/23 13:40:07;;;;;;;11.07;7.23;;;;;;;;;;2609361;54;20419;-74
2023/11/23 13:42:33;;;;;;;15.33;8.27;;;;;;;;;;2607288;54;20434;-74
2023/11/23 13:45:00;;;;;;;14.80;8.80;;;;;;;;;;2605277;54;20423;-74
2023/11/23 13:47:28;;;;;;;9.53;7.40;;;;;;;;;;2604688;54;20451;-74
2023/11/23 13:49:54;;;;;;;14.37;8.70;;;;;;;;;;2605671;54;20404;-76
2023/11/23 13:52:20;;;;;;;7.90;6.53;;;;;;;;;;2605923;54;20414;-76
2023/11/23 13:54:46;;;;;;;9.63;8.40;;;;;;;;;;2606127;39;20898;-75
2023/11/23 13:57:13;;;;;;;12.70;8.93;;;;;;;;;;2607990;54;20530;-75
2023/11/23 13:59:39;;;;;;;13.10;9.77;;;;;;;;;;2609175;39;21015;-74
2023/11/23 14:02:07;;;;;;;8.93;6.77;;;;;;;;;;2607827;47;20842;-75
2023/11/23 14:04:35;;;;;;;18.80;7.90;;;;;;;;;;2608969;54;20415;-75
2023/11/23 14:07:02;;;;;;;10.40;7.87;;;;;;;;;;2608984;54;21074;-74
2023/11/23 14:09:30;;;;;;;19.43;6.40;;;;;;;;;;2609546;51;20427;-75
2023/11/23 14:11:56;;;;;;;10.00;6.93;;;;;;;;;;2606655;47;20419;-74
2023/11/23 14:14:22;;;;;;;14.13;8.50;;;;;;;;;;2609653;54;20419;-75
2023/11/23 14:16:48;;;;;;;9.60;7.53;;;;;;;;;;2609990;54;20408;-75